Norwegian Getaway — C6ZJ4 — position and weather

sailwx.info

Track history (hours):
 
Tides and Currents Weather Stations Pressure Air Temp Water Temp Dewpoint Dewpoint Depression Visibility Wind Speed Wind Dir Waves Ship Positions

Norwegian Getaway

Last reported at 2019-Sep-20 20:34 UTC. Time now 2019-Sep-21 01:08 UTC.
Position N 59°18' E 021°30'.

Length 326 m; draft 8.6 m.

Type: Ship. MMSI: 311050900.

Date/timePositionNaut miles runAvg speedWind from/ knotsBaromVisibWave heightAir tempDewpointWater temp
2019-Sep-20 20:34N 59°18' E 021°30'3417.5
2019-Sep-20 18:35N 59°30' E 022°34'117.7
2019-Sep-20 18:30N 59°31' E 022°36'917.6
2019-Sep-20 18:00N 59°33' E 022°53'918.1
2019-Sep-20 17:30N 59°36' E 023°10'917.5
2019-Sep-20 17:00N 59°38' E 023°27'917.8
2019-Sep-20 16:30N 59°41' E 023°44'1817.5
2019-Sep-20 15:28N 59°46' E 024°18'817.3
2019-Sep-20 15:00N 59°50' E 024°31'917.6
2019-Sep-20 14:29N 59°56' E 024°45'714.2
2019-Sep-20 13:59N 60°01' E 024°56'613.2
2019-Sep-20 13:30N 60°07' E 024°54'2 3.2
2019-Sep-20 13:00N 60°09' E 024°55'0 0.0
2019-Sep-20 12:29N 60°09' E 024°55'0 0.0
2019-Sep-20 11:59N 60°09' E 024°55'0 0.0
2019-Sep-20 11:29N 60°09' E 024°55'0 0.0
2019-Sep-20 10:59N 60°09' E 024°55'0 0.0
2019-Sep-20 10:29N 60°09' E 024°55'0 0.0
2019-Sep-20 09:58N 60°09' E 024°55'0 0.0
2019-Sep-20 09:28N 60°09' E 024°55'0 0.0
2019-Sep-20 08:58N 60°09' E 024°55'0 0.0
2019-Sep-20 08:28N 60°09' E 024°55'0 0.0
2019-Sep-20 07:58N 60°09' E 024°55'0 0.0
2019-Sep-20 07:30N 60°09' E 024°55'0 0.0
2019-Sep-20 07:00N 60°09' E 024°55'0 0.0
2019-Sep-20 06:30N 60°09' E 024°55'0 0.0
2019-Sep-20 06:00N 60°09' E 024°55'0 0.0
2019-Sep-20 05:30N 60°09' E 024°55'0 0.0
2019-Sep-20 05:00N 60°09' E 024°55'0 0.0
2019-Sep-20 04:30N 60°09' E 024°55'0 0.0
2019-Sep-20 04:00N 60°09' E 024°55'0 0.7
2019-Sep-20 03:30N 60°09' E 024°55'4 7.1
2019-Sep-20 03:00N 60°05' E 024°54'612.2
2019-Sep-20 02:30N 59°59' E 024°56'713.6
2019-Sep-20 02:00N 59°54' E 025°06'3318.0
2019-Sep-20 00:09N 59°59' E 026°12'318.3
2019-Sep-20 00:00N 59°59' E 026°17'918.4
2019-Sep-19 23:30N 60°01' E 026°35'918.5
2019-Sep-19 23:00N 59°60' E 026°53'917.8
2019-Sep-19 22:30N 60°01' E 027°11'1018.9
2019-Sep-19 22:00N 60°06' E 027°27'918.8
2019-Sep-19 21:30N 60°11' E 027°43'918.7
2019-Sep-19 21:00N 60°10' E 028°02'918.8
2019-Sep-19 20:31N 60°07' E 028°19'918.5
2019-Sep-19 20:00N 60°03' E 028°36'1119.8
2019-Sep-19 19:29N 60°03' E 028°57'1419.4
2019-Sep-19 18:46N 60°02' E 029°25'2 8.7
2019-Sep-19 18:29N 60°02' E 029°29'611.6
2019-Sep-19 18:00N 59°60' E 029°40'5 9.2
2019-Sep-19 17:31N 59°58' E 029°48'610.6
2019-Sep-19 16:57N 59°55' E 029°59'4 9.9
2019-Sep-19 16:31N 59°57' E 030°07'2 3.6
2019-Sep-19 16:00N 59°57' E 030°11'0 0.0
2019-Sep-19 15:26N 59°57' E 030°11'0 0.0
2019-Sep-19 14:51N 59°57' E 030°11'0 0.0
2019-Sep-19 14:16N 59°57' E 030°11'0 0.0
2019-Sep-19 13:51N 59°57' E 030°11'0 0.0
2019-Sep-19 13:03N 59°57' E 030°11'0 0.1
2019-Sep-19 13:00N 59°57' E 030°11'0 0.0
2019-Sep-19 12:29N 59°57' E 030°11'0 0.0
2019-Sep-19 11:53N 59°57' E 030°11'0 0.0
2019-Sep-19 11:30N 59°57' E 030°11'0 0.0
2019-Sep-19 10:58N 59°57' E 030°11'0 0.0
2019-Sep-19 10:24N 59°57' E 030°11'0 0.0
2019-Sep-19 10:00N 59°57' E 030°11'0 0.0
2019-Sep-19 09:26N 59°57' E 030°11'0 0.0
2019-Sep-19 08:59N 59°57' E 030°11'0 0.0
2019-Sep-19 08:30N 59°57' E 030°11'0 0.0
2019-Sep-19 07:57N 59°57' E 030°11'0 0.0
2019-Sep-19 07:27N 59°57' E 030°11'0 0.0
2019-Sep-19 06:51N 59°57' E 030°11'0 0.0
2019-Sep-19 06:21N 59°57' E 030°11'0 0.0
2019-Sep-19 05:57N 59°57' E 030°11'0 0.0
2019-Sep-19 05:30N 59°57' E 030°11'0 0.0
2019-Sep-19 05:00N 59°57' E 030°11'0 0.0
2019-Sep-19 04:30N 59°57' E 030°11'0 0.0
2019-Sep-19 04:00N 59°57' E 030°11'0 0.0
2019-Sep-19 03:30N 59°57' E 030°11'0 0.0
2019-Sep-19 02:51N 59°57' E 030°11'0 0.0
2019-Sep-19 02:20N 59°57' E 030°11'0 0.0
2019-Sep-19 01:44N 59°57' E 030°11'0 0.0
2019-Sep-19 01:19N 59°57' E 030°11'0 0.0
2019-Sep-19 00:59N 59°57' E 030°11'0 0.0
2019-Sep-19 00:31N 59°57' E 030°11'0 0.0
2019-Sep-18 23:59N 59°57' E 030°11'0 0.0
2019-Sep-18 23:29N 59°57' E 030°11'0 0.0
2019-Sep-18 22:59N 59°57' E 030°11'0 0.0
2019-Sep-18 22:26N 59°57' E 030°11'0 0.0
2019-Sep-18 21:59N 59°57' E 030°11'0 0.0
2019-Sep-18 21:26N 59°57' E 030°11'0 0.0
2019-Sep-18 20:56N 59°57' E 030°11'0 0.0
2019-Sep-18 20:29N 59°57' E 030°11'0 0.0
2019-Sep-18 19:58N 59°57' E 030°11'0 0.0
2019-Sep-18 19:30N 59°57' E 030°11'0 0.0
2019-Sep-18 18:59N 59°57' E 030°11'0 0.0
2019-Sep-18 18:25N 59°57' E 030°11'0 0.0
2019-Sep-18 17:58N 59°57' E 030°11'0 0.0
2019-Sep-18 17:29N 59°57' E 030°11'0 0.0
2019-Sep-18 16:58N 59°57' E 030°11'0 0.0
2019-Sep-18 16:28N 59°57' E 030°11'0 0.0
2019-Sep-18 15:58N 59°57' E 030°11'0 0.0
2019-Sep-18 15:28N 59°57' E 030°11'0 0.0
2019-Sep-18 15:00N 59°57' E 030°11'0 0.0
2019-Sep-18 14:30N 59°57' E 030°11'0 0.0
2019-Sep-18 14:00N 59°57' E 030°11'0 0.0
2019-Sep-18 13:24N 59°57' E 030°11'0 0.0
2019-Sep-18 13:00N 59°57' E 030°11'0 0.0
2019-Sep-18 12:30N 59°57' E 030°11'0 0.0
2019-Sep-18 12:00N 59°57' E 030°11'0 0.0
2019-Sep-18 11:30N 59°57' E 030°11'0 0.0
2019-Sep-18 11:00N 59°57' E 030°11'0 0.0
2019-Sep-18 10:29N 59°57' E 030°11'0 0.0
2019-Sep-18 09:59N 59°57' E 030°11'0 0.0
2019-Sep-18 09:25N 59°57' E 030°11'0 0.0
2019-Sep-18 08:55N 59°57' E 030°11'0 0.0
2019-Sep-18 08:25N 59°57' E 030°11'0 0.0
2019-Sep-18 07:58N 59°57' E 030°11'0 0.0
2019-Sep-18 07:30N 59°57' E 030°11'0 0.0
2019-Sep-18 06:59N 59°57' E 030°11'0 0.0
2019-Sep-18 06:28N 59°57' E 030°11'0 0.0
2019-Sep-18 05:57N 59°57' E 030°11'0 0.0
2019-Sep-18 05:30N 59°57' E 030°11'0 0.0
2019-Sep-18 04:56N 59°57' E 030°11'0 0.0
2019-Sep-18 04:26N 59°57' E 030°11'0 0.0
2019-Sep-18 04:00N 59°57' E 030°11'1 1.2
2019-Sep-18 03:30N 59°57' E 030°10'3 6.9
2019-Sep-18 03:00N 59°56' E 030°03'5 9.8
2019-Sep-18 02:30N 59°57' E 029°54'5 9.7
2019-Sep-18 02:00N 59°59' E 029°45'610.6
2019-Sep-18 01:26N 60°01' E 029°34'5 9.2
2019-Sep-18 00:54N 60°02' E 029°24'411.0
2019-Sep-18 00:30N 60°01' E 029°15'713.9
2019-Sep-18 00:00N 60°02' E 029°01'714.5
2019-Sep-17 23:30N 60°02' E 028°47'713.8
2019-Sep-17 23:00N 60°02' E 028°33'713.9
2019-Sep-17 22:31N 60°05' E 028°20'713.8
2019-Sep-17 22:01N 60°08' E 028°08'714.5
2019-Sep-17 21:30N 60°10' E 027°54'713.6
2019-Sep-17 21:00N 60°09' E 027°41'714.5
2019-Sep-17 20:30N 60°05' E 027°28'714.6
2019-Sep-17 20:00N 60°02' E 027°16'714.2
2019-Sep-17 19:30N 59°58' E 027°04'714.7
2019-Sep-17 19:01N 59°59' E 026°49'714.4
2019-Sep-17 18:31N 59°59' E 026°35'714.8
2019-Sep-17 18:00N 59°57' E 026°20'1414.8
2019-Sep-17 17:06N 59°53' E 025°55'114.8
2019-Sep-17 17:00N 59°53' E 025°52'714.9
2019-Sep-17 16:30N 59°50' E 025°38'714.9
2019-Sep-17 16:00N 59°48' E 025°24'714.9
2019-Sep-17 15:30N 59°46' E 025°10'815.4
2019-Sep-17 15:01N 59°44' E 024°55'714.6
2019-Sep-17 14:31N 59°39' E 024°44'713.4
2019-Sep-17 14:00N 59°32' E 024°44'510.9
2019-Sep-17 13:30N 59°27' E 024°46'0 0.0
2019-Sep-17 13:00N 59°27' E 024°46'0 0.0
2019-Sep-17 12:30N 59°27' E 024°46'0 0.0
2019-Sep-17 12:00N 59°27' E 024°46'0 0.0
2019-Sep-17 11:30N 59°27' E 024°46'0 0.0
2019-Sep-17 11:00N 59°27' E 024°46'0 0.0
2019-Sep-17 10:29N 59°27' E 024°46'0 0.0
2019-Sep-17 09:59N 59°27' E 024°46'0 0.0
2019-Sep-17 09:29N 59°27' E 024°46'0 0.0
2019-Sep-17 08:59N 59°27' E 024°46'0 0.0
2019-Sep-17 08:29N 59°27' E 024°46'0 0.0
2019-Sep-17 07:59N 59°27' E 024°46'0 0.0
2019-Sep-17 07:29N 59°27' E 024°46'0 0.0
2019-Sep-17 06:59N 59°27' E 024°46'0 0.0
2019-Sep-17 06:29N 59°27' E 024°46'0 0.0
2019-Sep-17 05:59N 59°27' E 024°46'0 0.2
2019-Sep-17 05:30N 59°27' E 024°46'3 6.2
2019-Sep-17 05:01N 59°30' E 024°44'612.0
2019-Sep-17 04:31N 59°30' E 024°32'612.9
2019-Sep-17 04:00N 59°30' E 024°20'815.4
2019-Sep-17 03:30N 59°29' E 024°04'815.3
2019-Sep-17 02:58N 59°28' E 023°48'715.4
2019-Sep-17 02:30N 59°26' E 023°35'815.6
2019-Sep-17 02:00N 59°25' E 023°19'815.7
2019-Sep-17 01:29N 59°24' E 023°04'714.7
2019-Sep-17 01:00N 59°23' E 022°50'815.4
2019-Sep-17 00:28N 59°20' E 022°34'26115.7
2019-Sep-16 07:49N 56°09' E 017°01'616.7
2019-Sep-16 07:27N 56°05' E 016°53'816.8
2019-Sep-16 07:00N 56°01' E 016°42'816.6
2019-Sep-16 06:30N 55°56' E 016°30'816.9
2019-Sep-16 06:00N 55°52' E 016°17'816.8
2019-Sep-16 05:30N 55°47' E 016°04'816.6
2019-Sep-16 05:00N 55°44' E 015°51'816.8
2019-Sep-16 04:30N 55°40' E 015°38'918.4
2019-Sep-16 04:00N 55°36' E 015°23'1020.2
2019-Sep-16 03:30N 55°31' E 015°07'1220.5
2019-Sep-16 02:56N 55°26' E 014°48'6819.7
2019-Sep-15 23:30N 54°50' E 013°08'1020.1
2019-Sep-15 23:01N 54°47' E 012°52'3318.5
2019-Sep-15 21:15N 54°25' E 012°10'519.5
2019-Sep-15 21:01N 54°21' E 012°07'713.7
2019-Sep-15 20:29N 54°14' E 012°04'4 3.4
2019-Sep-15 19:21N 54°10' E 012°06'0 0.0
2019-Sep-15 16:18N 54°10' E 012°06'0 0.0
2019-Sep-15 14:21N 54°10' E 012°06'0 0.0
2019-Sep-15 12:21N 54°10' E 012°06'0 0.0
2019-Sep-15 11:45N 54°10' E 012°06'0 0.0
2019-Sep-15 09:57N 54°10' E 012°06'0 0.0
2019-Sep-15 04:57N 54°10' E 012°06'1 1.1
2019-Sep-15 04:28N 54°10' E 012°06'1 2.5
2019-Sep-15 03:59N 54°11' E 012°05'510.2
2019-Sep-15 03:28N 54°16' E 012°01'2417.1
2019-Sep-15 02:02N 54°30' E 011°27'116.8
2019-Sep-15 02:00N 54°30' E 011°26'918.5
2019-Sep-15 01:30N 54°35' E 011°12'1019.8
2019-Sep-15 01:01N 54°40' E 010°57'917.7
2019-Sep-15 00:31N 54°48' E 010°51'918.7
2019-Sep-15 00:00N 54°57' E 010°56'1019.0
2019-Sep-14 23:30N 55°06' E 011°02'916.5
2019-Sep-14 22:58N 55°14' E 011°06'7212.4
2019-Sep-14 17:09N 56°08' E 012°30'318.9
2019-Sep-14 17:00N 56°06' E 012°34'817.4
2019-Sep-14 16:30N 55°59' E 012°42'917.5
2019-Sep-14 16:00N 55°50' E 012°44'713.8
2019-Sep-14 15:30N 55°44' E 012°40'2 3.4
2019-Sep-14 15:00N 55°43' E 012°37'0 0.0
2019-Sep-14 14:30N 55°43' E 012°37'0 0.0
2019-Sep-14 14:00N 55°43' E 012°37'0 0.0
2019-Sep-14 13:26N 55°43' E 012°37'0 0.0
2019-Sep-14 12:56N 55°43' E 012°37'0 0.0
2019-Sep-14 12:29N 55°43' E 012°37'0 0.0
2019-Sep-14 11:59N 55°43' E 012°37'0 0.0
2019-Sep-14 11:25N 55°43' E 012°37'0 0.0
2019-Sep-14 10:58N 55°43' E 012°37'0 0.0
2019-Sep-14 10:28N 55°43' E 012°37'0 0.0
2019-Sep-14 09:58N 55°43' E 012°37'0 0.0
2019-Sep-14 09:28N 55°43' E 012°37'0 0.0
2019-Sep-14 08:58N 55°43' E 012°37'0 0.0
2019-Sep-14 08:23N 55°43' E 012°37'0 0.0
2019-Sep-14 07:58N 55°43' E 012°37'0 0.0
2019-Sep-14 07:25N 55°43' E 012°37'0 0.0
2019-Sep-14 06:57N 55°43' E 012°37'0 0.0
2019-Sep-14 06:30N 55°43' E 012°37'0 0.0
2019-Sep-14 06:00N 55°43' E 012°37'0 0.0
2019-Sep-14 05:30N 55°43' E 012°37'0 0.0
2019-Sep-14 05:00N 55°43' E 012°37'0 0.0
2019-Sep-14 04:15N 55°43' E 012°37'0 0.0
2019-Sep-14 04:00N 55°43' E 012°37'0 0.0
2019-Sep-14 03:29N 55°43' E 012°37'0 0.0
2019-Sep-14 02:59N 55°43' E 012°37'0 0.0
2019-Sep-14 02:29N 55°43' E 012°37'0 0.0
2019-Sep-14 01:59N 55°43' E 012°37'0 0.0
2019-Sep-14 01:29N 55°43' E 012°37'0 0.0
2019-Sep-14 00:59N 55°43' E 012°37'0 0.0
2019-Sep-14 00:29N 55°43' E 012°37'0 0.0
2019-Sep-13 23:59N 55°43' E 012°37'0 0.0
2019-Sep-13 23:29N 55°43' E 012°37'0 0.0
2019-Sep-13 22:58N 55°43' E 012°37'0 0.0
2019-Sep-13 22:30N 55°43' E 012°37'0 0.0
2019-Sep-13 22:00N 55°43' E 012°37'0 0.0
2019-Sep-13 21:28N 55°43' E 012°37'0 0.0
2019-Sep-13 20:58N 55°43' E 012°37'0 0.0
2019-Sep-13 20:28N 55°43' E 012°37'0 0.0
2019-Sep-13 19:58N 55°43' E 012°37'0 0.0
2019-Sep-13 19:28N 55°43' E 012°37'0 0.0
2019-Sep-13 18:59N 55°43' E 012°37'0 0.0
2019-Sep-13 18:31N 55°43' E 012°37'0 0.0
2019-Sep-13 17:58N 55°43' E 012°37'0 0.0
2019-Sep-13 17:31N 55°43' E 012°37'0 0.0
2019-Sep-13 17:01N 55°43' E 012°37'0 0.0
2019-Sep-13 16:30N 55°43' E 012°37'0 0.0
2019-Sep-13 16:00N 55°43' E 012°37'0 0.0
2019-Sep-13 15:27N 55°43' E 012°37'0 0.0
2019-Sep-13 15:00N 55°43' E 012°37'2 3.0
2019-Sep-13 14:30N 55°44' E 012°39'510.5
2019-Sep-13 14:01N 55°49' E 012°43'918.7
2019-Sep-13 13:30N 55°58' E 012°42'917.6
2019-Sep-13 13:00N 56°06' E 012°34'6915.0
2019-Sep-13 08:26N 57°07' E 011°37'511.3
2019-Sep-13 08:00N 57°11' E 011°34'811.5
2019-Sep-13 07:18N 57°19' E 011°32'412.9
2019-Sep-13 06:59N 57°24' E 011°31'612.3
2019-Sep-13 06:30N 57°29' E 011°31'510.9
2019-Sep-13 06:00N 57°25' E 011°36'917.5
2019-Sep-13 05:30N 57°16' E 011°38'918.3
2019-Sep-13 05:00N 57°07' E 011°41'11815.9
2019-Sep-12 21:35N 55°11' E 011°05'719.1
2019-Sep-12 21:12N 55°04' E 011°02'419.5
2019-Sep-12 21:01N 54°60' E 011°02'918.4
2019-Sep-12 20:31N 54°52' E 010°53'917.4
2019-Sep-12 20:01N 54°43' E 010°53'815.8
2019-Sep-12 19:30N 54°39' E 011°04'1020.4
2019-Sep-12 19:01N 54°34' E 011°19'1020.7
2019-Sep-12 18:30N 54°29' E 011°36'1020.7
2019-Sep-12 18:00N 54°27' E 011°53'1120.0
2019-Sep-12 17:29N 54°27' E 012°11'10020.2
2019-Sep-12 12:33N 55°25' E 014°32'121.4
2019-Sep-12 12:29N 55°26' E 014°34'1021.4
2019-Sep-12 12:00N 55°31' E 014°50'1121.5
2019-Sep-12 11:30N 55°36' E 015°07'1121.5
2019-Sep-12 11:01N 55°41' E 015°24'1121.4
2019-Sep-12 10:31N 55°46' E 015°40'1121.8
2019-Sep-12 10:01N 55°52' E 015°57'1121.3
2019-Sep-12 09:31N 55°57' E 016°13'1121.2
2019-Sep-12 09:00N 56°03' E 016°29'1121.6
2019-Sep-12 08:31N 56°09' E 016°45'23819.3
2019-Sep-11 20:11N 59°14' E 021°23'520.4
2019-Sep-11 19:56N 59°17' E 021°33'8420.6
2019-Sep-11 15:52N 59°45' E 024°08'820.9
2019-Sep-11 15:30N 59°47' E 024°22'1119.9
2019-Sep-11 14:56N 59°53' E 024°41'920.1
2019-Sep-11 14:31N 59°59' E 024°54'3 7.0
2019-Sep-11 14:01N 60°03' E 024°54'611.9
2019-Sep-11 13:30N 60°09' E 024°54'1 1.2
2019-Sep-11 13:00N 60°09' E 024°55'0 0.0
2019-Sep-11 12:30N 60°09' E 024°55'0 0.0
2019-Sep-11 12:00N 60°09' E 024°55'0 0.0
2019-Sep-11 11:30N 60°09' E 024°55'0 0.0
2019-Sep-11 11:00N 60°09' E 024°55'0 0.0
2019-Sep-11 10:30N 60°09' E 024°55'0 0.0
2019-Sep-11 10:00N 60°09' E 024°55'0 0.0
2019-Sep-11 09:30N 60°09' E 024°55'0 0.0
2019-Sep-11 09:00N 60°09' E 024°55'0 0.0
2019-Sep-11 08:29N 60°09' E 024°55'0 0.0
2019-Sep-11 07:59N 60°09' E 024°55'0 0.0
2019-Sep-11 07:28N 60°09' E 024°55'0 0.0
2019-Sep-11 07:00N 60°09' E 024°55'0 0.0
2019-Sep-11 06:30N 60°09' E 024°55'0 0.0
2019-Sep-11 05:59N 60°09' E 024°55'0 0.0
2019-Sep-11 05:30N 60°09' E 024°55'0 0.0
2019-Sep-11 04:59N 60°09' E 024°55'0 0.0
2019-Sep-11 04:30N 60°09' E 024°55'0 0.0
2019-Sep-11 04:00N 60°09' E 024°55'0 0.1
2019-Sep-11 03:31N 60°09' E 024°55'3 5.5
2019-Sep-11 03:00N 60°06' E 024°54'612.9
2019-Sep-11 02:30N 59°60' E 024°57'612.0
2019-Sep-11 02:01N 59°54' E 025°02'815.2
2019-Sep-11 01:30N 59°55' E 025°17'715.0
2019-Sep-11 01:01N 59°55' E 025°32'815.0
2019-Sep-11 00:30N 59°55' E 025°47'815.2
2019-Sep-11 00:01N 59°57' E 026°02'816.6
2019-Sep-10 23:31N 59°60' E 026°18'1020.2
2019-Sep-10 23:01N 60°01' E 026°37'1020.7
2019-Sep-10 22:30N 59°60' E 026°58'1019.8
2019-Sep-10 22:01N 60°03' E 027°16'1020.2
2019-Sep-10 21:31N 60°08' E 027°34'918.8
2019-Sep-10 21:01N 60°11' E 027°52'  
Track history (hours):
 
Tides and Currents Weather Stations Pressure Air Temp Water Temp Dewpoint Dewpoint Depression Visibility Wind Speed Wind Dir Waves Ship Positions

Norwegian Getaway

Last reported at 2019-Sep-20 20:34 UTC. Time now 2019-Sep-21 01:08 UTC.
Position N 59°18' E 021°30'.

Length 326 m; draft 8.6 m.

Type: Ship. MMSI: 311050900.

Date/timePositionNaut miles runAvg speedWind from/ knotsBaromVisibWave heightAir tempDewpointWater temp
2019-Sep-20 20:34N 59°18' E 021°30'3417.5
2019-Sep-20 18:35N 59°30' E 022°34'117.7
2019-Sep-20 18:30N 59°31' E 022°36'917.6
2019-Sep-20 18:00N 59°33' E 022°53'918.1
2019-Sep-20 17:30N 59°36' E 023°10'917.5
2019-Sep-20 17:00N 59°38' E 023°27'917.8
2019-Sep-20 16:30N 59°41' E 023°44'1817.5
2019-Sep-20 15:28N 59°46' E 024°18'817.3
2019-Sep-20 15:00N 59°50' E 024°31'917.6
2019-Sep-20 14:29N 59°56' E 024°45'714.2
2019-Sep-20 13:59N 60°01' E 024°56'613.2
2019-Sep-20 13:30N 60°07' E 024°54'2 3.2
2019-Sep-20 13:00N 60°09' E 024°55'0 0.0
2019-Sep-20 12:29N 60°09' E 024°55'0 0.0
2019-Sep-20 11:59N 60°09' E 024°55'0 0.0
2019-Sep-20 11:29N 60°09' E 024°55'0 0.0
2019-Sep-20 10:59N 60°09' E 024°55'0 0.0
2019-Sep-20 10:29N 60°09' E 024°55'0 0.0
2019-Sep-20 09:58N 60°09' E 024°55'0 0.0
2019-Sep-20 09:28N 60°09' E 024°55'0 0.0
2019-Sep-20 08:58N 60°09' E 024°55'0 0.0
2019-Sep-20 08:28N 60°09' E 024°55'0 0.0
2019-Sep-20 07:58N 60°09' E 024°55'0 0.0
2019-Sep-20 07:30N 60°09' E 024°55'0 0.0
2019-Sep-20 07:00N 60°09' E 024°55'0 0.0
2019-Sep-20 06:30N 60°09' E 024°55'0 0.0
2019-Sep-20 06:00N 60°09' E 024°55'0 0.0
2019-Sep-20 05:30N 60°09' E 024°55'0 0.0
2019-Sep-20 05:00N 60°09' E 024°55'0 0.0
2019-Sep-20 04:30N 60°09' E 024°55'0 0.0
2019-Sep-20 04:00N 60°09' E 024°55'0 0.7
2019-Sep-20 03:30N 60°09' E 024°55'4 7.1
2019-Sep-20 03:00N 60°05' E 024°54'612.2
2019-Sep-20 02:30N 59°59' E 024°56'713.6
2019-Sep-20 02:00N 59°54' E 025°06'3318.0
2019-Sep-20 00:09N 59°59' E 026°12'318.3
2019-Sep-20 00:00N 59°59' E 026°17'918.4
2019-Sep-19 23:30N 60°01' E 026°35'918.5
2019-Sep-19 23:00N 59°60' E 026°53'917.8
2019-Sep-19 22:30N 60°01' E 027°11'1018.9
2019-Sep-19 22:00N 60°06' E 027°27'918.8
2019-Sep-19 21:30N 60°11' E 027°43'918.7
2019-Sep-19 21:00N 60°10' E 028°02'918.8
2019-Sep-19 20:31N 60°07' E 028°19'918.5
2019-Sep-19 20:00N 60°03' E 028°36'1119.8
2019-Sep-19 19:29N 60°03' E 028°57'1419.4
2019-Sep-19 18:46N 60°02' E 029°25'2 8.7
2019-Sep-19 18:29N 60°02' E 029°29'611.6
2019-Sep-19 18:00N 59°60' E 029°40'5 9.2
2019-Sep-19 17:31N 59°58' E 029°48'610.6
2019-Sep-19 16:57N 59°55' E 029°59'4 9.9
2019-Sep-19 16:31N 59°57' E 030°07'2 3.6
2019-Sep-19 16:00N 59°57' E 030°11'0 0.0
2019-Sep-19 15:26N 59°57' E 030°11'0 0.0
2019-Sep-19 14:51N 59°57' E 030°11'0 0.0
2019-Sep-19 14:16N 59°57' E 030°11'0 0.0
2019-Sep-19 13:51N 59°57' E 030°11'0 0.0
2019-Sep-19 13:03N 59°57' E 030°11'0 0.1
2019-Sep-19 13:00N 59°57' E 030°11'0 0.0
2019-Sep-19 12:29N 59°57' E 030°11'0 0.0
2019-Sep-19 11:53N 59°57' E 030°11'0 0.0
2019-Sep-19 11:30N 59°57' E 030°11'0 0.0
2019-Sep-19 10:58N 59°57' E 030°11'0 0.0
2019-Sep-19 10:24N 59°57' E 030°11'0 0.0
2019-Sep-19 10:00N 59°57' E 030°11'0 0.0
2019-Sep-19 09:26N 59°57' E 030°11'0 0.0
2019-Sep-19 08:59N 59°57' E 030°11'0 0.0
2019-Sep-19 08:30N 59°57' E 030°11'0 0.0
2019-Sep-19 07:57N 59°57' E 030°11'0 0.0
2019-Sep-19 07:27N 59°57' E 030°11'0 0.0
2019-Sep-19 06:51N 59°57' E 030°11'0 0.0
2019-Sep-19 06:21N 59°57' E 030°11'0 0.0
2019-Sep-19 05:57N 59°57' E 030°11'0 0.0
2019-Sep-19 05:30N 59°57' E 030°11'0 0.0
2019-Sep-19 05:00N 59°57' E 030°11'0 0.0
2019-Sep-19 04:30N 59°57' E 030°11'0 0.0
2019-Sep-19 04:00N 59°57' E 030°11'0 0.0
2019-Sep-19 03:30N 59°57' E 030°11'0 0.0
2019-Sep-19 02:51N 59°57' E 030°11'0 0.0
2019-Sep-19 02:20N 59°57' E 030°11'0 0.0
2019-Sep-19 01:44N 59°57' E 030°11'0 0.0
2019-Sep-19 01:19N 59°57' E 030°11'0 0.0
2019-Sep-19 00:59N 59°57' E 030°11'0 0.0
2019-Sep-19 00:31N 59°57' E 030°11'0 0.0
2019-Sep-18 23:59N 59°57' E 030°11'0 0.0
2019-Sep-18 23:29N 59°57' E 030°11'0 0.0
2019-Sep-18 22:59N 59°57' E 030°11'0 0.0
2019-Sep-18 22:26N 59°57' E 030°11'0 0.0
2019-Sep-18 21:59N 59°57' E 030°11'0 0.0
2019-Sep-18 21:26N 59°57' E 030°11'0 0.0
2019-Sep-18 20:56N 59°57' E 030°11'0 0.0
2019-Sep-18 20:29N 59°57' E 030°11'0 0.0
2019-Sep-18 19:58N 59°57' E 030°11'0 0.0
2019-Sep-18 19:30N 59°57' E 030°11'0 0.0
2019-Sep-18 18:59N 59°57' E 030°11'0 0.0
2019-Sep-18 18:25N 59°57' E 030°11'0 0.0
2019-Sep-18 17:58N 59°57' E 030°11'0 0.0
2019-Sep-18 17:29N 59°57' E 030°11'0 0.0
2019-Sep-18 16:58N 59°57' E 030°11'0 0.0
2019-Sep-18 16:28N 59°57' E 030°11'0 0.0
2019-Sep-18 15:58N 59°57' E 030°11'0 0.0
2019-Sep-18 15:28N 59°57' E 030°11'0 0.0
2019-Sep-18 15:00N 59°57' E 030°11'0 0.0
2019-Sep-18 14:30N 59°57' E 030°11'0 0.0
2019-Sep-18 14:00N 59°57' E 030°11'0 0.0
2019-Sep-18 13:24N 59°57' E 030°11'0 0.0
2019-Sep-18 13:00N 59°57' E 030°11'0 0.0
2019-Sep-18 12:30N 59°57' E 030°11'0 0.0
2019-Sep-18 12:00N 59°57' E 030°11'0 0.0
2019-Sep-18 11:30N 59°57' E 030°11'0 0.0
2019-Sep-18 11:00N 59°57' E 030°11'0 0.0
2019-Sep-18 10:29N 59°57' E 030°11'0 0.0
2019-Sep-18 09:59N 59°57' E 030°11'0 0.0
2019-Sep-18 09:25N 59°57' E 030°11'0 0.0
2019-Sep-18 08:55N 59°57' E 030°11'0 0.0
2019-Sep-18 08:25N 59°57' E 030°11'0 0.0
2019-Sep-18 07:58N 59°57' E 030°11'0 0.0
2019-Sep-18 07:30N 59°57' E 030°11'0 0.0
2019-Sep-18 06:59N 59°57' E 030°11'0 0.0
2019-Sep-18 06:28N 59°57' E 030°11'0 0.0
2019-Sep-18 05:57N 59°57' E 030°11'0 0.0
2019-Sep-18 05:30N 59°57' E 030°11'0 0.0
2019-Sep-18 04:56N 59°57' E 030°11'0 0.0
2019-Sep-18 04:26N 59°57' E 030°11'0 0.0
2019-Sep-18 04:00N 59°57' E 030°11'1 1.2
2019-Sep-18 03:30N 59°57' E 030°10'3 6.9
2019-Sep-18 03:00N 59°56' E 030°03'5 9.8
2019-Sep-18 02:30N 59°57' E 029°54'5 9.7
2019-Sep-18 02:00N 59°59' E 029°45'610.6
2019-Sep-18 01:26N 60°01' E 029°34'5 9.2
2019-Sep-18 00:54N 60°02' E 029°24'411.0
2019-Sep-18 00:30N 60°01' E 029°15'713.9
2019-Sep-18 00:00N 60°02' E 029°01'714.5
2019-Sep-17 23:30N 60°02' E 028°47'713.8
2019-Sep-17 23:00N 60°02' E 028°33'713.9
2019-Sep-17 22:31N 60°05' E 028°20'713.8
2019-Sep-17 22:01N 60°08' E 028°08'714.5
2019-Sep-17 21:30N 60°10' E 027°54'713.6
2019-Sep-17 21:00N 60°09' E 027°41'714.5
2019-Sep-17 20:30N 60°05' E 027°28'714.6
2019-Sep-17 20:00N 60°02' E 027°16'714.2
2019-Sep-17 19:30N 59°58' E 027°04'714.7
2019-Sep-17 19:01N 59°59' E 026°49'714.4
2019-Sep-17 18:31N 59°59' E 026°35'714.8
2019-Sep-17 18:00N 59°57' E 026°20'1414.8
2019-Sep-17 17:06N 59°53' E 025°55'114.8
2019-Sep-17 17:00N 59°53' E 025°52'714.9
2019-Sep-17 16:30N 59°50' E 025°38'714.9
2019-Sep-17 16:00N 59°48' E 025°24'714.9
2019-Sep-17 15:30N 59°46' E 025°10'815.4
2019-Sep-17 15:01N 59°44' E 024°55'714.6
2019-Sep-17 14:31N 59°39' E 024°44'713.4
2019-Sep-17 14:00N 59°32' E 024°44'510.9
2019-Sep-17 13:30N 59°27' E 024°46'0 0.0
2019-Sep-17 13:00N 59°27' E 024°46'0 0.0
2019-Sep-17 12:30N 59°27' E 024°46'0 0.0
2019-Sep-17 12:00N 59°27' E 024°46'0 0.0
2019-Sep-17 11:30N 59°27' E 024°46'0 0.0
2019-Sep-17 11:00N 59°27' E 024°46'0 0.0
2019-Sep-17 10:29N 59°27' E 024°46'0 0.0
2019-Sep-17 09:59N 59°27' E 024°46'0 0.0
2019-Sep-17 09:29N 59°27' E 024°46'0 0.0
2019-Sep-17 08:59N 59°27' E 024°46'0 0.0
2019-Sep-17 08:29N 59°27' E 024°46'0 0.0
2019-Sep-17 07:59N 59°27' E 024°46'0 0.0
2019-Sep-17 07:29N 59°27' E 024°46'0 0.0
2019-Sep-17 06:59N 59°27' E 024°46'0 0.0
2019-Sep-17 06:29N 59°27' E 024°46'0 0.0
2019-Sep-17 05:59N 59°27' E 024°46'0 0.2
2019-Sep-17 05:30N 59°27' E 024°46'3 6.2
2019-Sep-17 05:01N 59°30' E 024°44'612.0
2019-Sep-17 04:31N 59°30' E 024°32'612.9
2019-Sep-17 04:00N 59°30' E 024°20'815.4
2019-Sep-17 03:30N 59°29' E 024°04'815.3
2019-Sep-17 02:58N 59°28' E 023°48'715.4
2019-Sep-17 02:30N 59°26' E 023°35'815.6
2019-Sep-17 02:00N 59°25' E 023°19'815.7
2019-Sep-17 01:29N 59°24' E 023°04'714.7
2019-Sep-17 01:00N 59°23' E 022°50'815.4
2019-Sep-17 00:28N 59°20' E 022°34'26115.7
2019-Sep-16 07:49N 56°09' E 017°01'616.7
2019-Sep-16 07:27N 56°05' E 016°53'816.8
2019-Sep-16 07:00N 56°01' E 016°42'816.6
2019-Sep-16 06:30N 55°56' E 016°30'816.9
2019-Sep-16 06:00N 55°52' E 016°17'816.8
2019-Sep-16 05:30N 55°47' E 016°04'816.6
2019-Sep-16 05:00N 55°44' E 015°51'816.8
2019-Sep-16 04:30N 55°40' E 015°38'918.4
2019-Sep-16 04:00N 55°36' E 015°23'1020.2
2019-Sep-16 03:30N 55°31' E 015°07'1220.5
2019-Sep-16 02:56N 55°26' E 014°48'6819.7
2019-Sep-15 23:30N 54°50' E 013°08'1020.1
2019-Sep-15 23:01N 54°47' E 012°52'3318.5
2019-Sep-15 21:15N 54°25' E 012°10'519.5
2019-Sep-15 21:01N 54°21' E 012°07'713.7
2019-Sep-15 20:29N 54°14' E 012°04'4 3.4
2019-Sep-15 19:21N 54°10' E 012°06'0 0.0
2019-Sep-15 16:18N 54°10' E 012°06'0 0.0
2019-Sep-15 14:21N 54°10' E 012°06'0 0.0
2019-Sep-15 12:21N 54°10' E 012°06'0 0.0
2019-Sep-15 11:45N 54°10' E 012°06'0 0.0
2019-Sep-15 09:57N 54°10' E 012°06'0 0.0
2019-Sep-15 04:57N 54°10' E 012°06'1 1.1
2019-Sep-15 04:28N 54°10' E 012°06'1 2.5
2019-Sep-15 03:59N 54°11' E 012°05'510.2
2019-Sep-15 03:28N 54°16' E 012°01'2417.1
2019-Sep-15 02:02N 54°30' E 011°27'116.8
2019-Sep-15 02:00N 54°30' E 011°26'918.5
2019-Sep-15 01:30N 54°35' E 011°12'1019.8
2019-Sep-15 01:01N 54°40' E 010°57'917.7
2019-Sep-15 00:31N 54°48' E 010°51'918.7
2019-Sep-15 00:00N 54°57' E 010°56'1019.0
2019-Sep-14 23:30N 55°06' E 011°02'916.5
2019-Sep-14 22:58N 55°14' E 011°06'7212.4
2019-Sep-14 17:09N 56°08' E 012°30'318.9
2019-Sep-14 17:00N 56°06' E 012°34'817.4
2019-Sep-14 16:30N 55°59' E 012°42'917.5
2019-Sep-14 16:00N 55°50' E 012°44'713.8
2019-Sep-14 15:30N 55°44' E 012°40'2 3.4
2019-Sep-14 15:00N 55°43' E 012°37'0 0.0
2019-Sep-14 14:30N 55°43' E 012°37'0 0.0
2019-Sep-14 14:00N 55°43' E 012°37'0 0.0
2019-Sep-14 13:26N 55°43' E 012°37'0 0.0
2019-Sep-14 12:56N 55°43' E 012°37'0 0.0
2019-Sep-14 12:29N 55°43' E 012°37'0 0.0
2019-Sep-14 11:59N 55°43' E 012°37'0 0.0
2019-Sep-14 11:25N 55°43' E 012°37'0 0.0
2019-Sep-14 10:58N 55°43' E 012°37'0 0.0
2019-Sep-14 10:28N 55°43' E 012°37'0 0.0
2019-Sep-14 09:58N 55°43' E 012°37'0 0.0
2019-Sep-14 09:28N 55°43' E 012°37'0 0.0
2019-Sep-14 08:58N 55°43' E 012°37'0 0.0
2019-Sep-14 08:23N 55°43' E 012°37'0 0.0
2019-Sep-14 07:58N 55°43' E 012°37'0 0.0
2019-Sep-14 07:25N 55°43' E 012°37'0 0.0
2019-Sep-14 06:57N 55°43' E 012°37'0 0.0
2019-Sep-14 06:30N 55°43' E 012°37'0 0.0
2019-Sep-14 06:00N 55°43' E 012°37'0 0.0
2019-Sep-14 05:30N 55°43' E 012°37'0 0.0
2019-Sep-14 05:00N 55°43' E 012°37'0 0.0
2019-Sep-14 04:15N 55°43' E 012°37'0 0.0
2019-Sep-14 04:00N 55°43' E 012°37'0 0.0
2019-Sep-14 03:29N 55°43' E 012°37'0 0.0
2019-Sep-14 02:59N 55°43' E 012°37'0 0.0
2019-Sep-14 02:29N 55°43' E 012°37'0 0.0
2019-Sep-14 01:59N 55°43' E 012°37'0 0.0
2019-Sep-14 01:29N 55°43' E 012°37'0 0.0
2019-Sep-14 00:59N 55°43' E 012°37'0 0.0
2019-Sep-14 00:29N 55°43' E 012°37'0 0.0
2019-Sep-13 23:59N 55°43' E 012°37'0 0.0
2019-Sep-13 23:29N 55°43' E 012°37'0 0.0
2019-Sep-13 22:58N 55°43' E 012°37'0 0.0
2019-Sep-13 22:30N 55°43' E 012°37'0 0.0
2019-Sep-13 22:00N 55°43' E 012°37'0 0.0
2019-Sep-13 21:28N 55°43' E 012°37'0 0.0
2019-Sep-13 20:58N 55°43' E 012°37'0 0.0
2019-Sep-13 20:28N 55°43' E 012°37'0 0.0
2019-Sep-13 19:58N 55°43' E 012°37'0 0.0
2019-Sep-13 19:28N 55°43' E 012°37'0 0.0
2019-Sep-13 18:59N 55°43' E 012°37'0 0.0
2019-Sep-13 18:31N 55°43' E 012°37'0 0.0
2019-Sep-13 17:58N 55°43' E 012°37'0 0.0
2019-Sep-13 17:31N 55°43' E 012°37'0 0.0
2019-Sep-13 17:01N 55°43' E 012°37'0 0.0
2019-Sep-13 16:30N 55°43' E 012°37'0 0.0
2019-Sep-13 16:00N 55°43' E 012°37'0 0.0
2019-Sep-13 15:27N 55°43' E 012°37'0 0.0
2019-Sep-13 15:00N 55°43' E 012°37'2 3.0
2019-Sep-13 14:30N 55°44' E 012°39'510.5
2019-Sep-13 14:01N 55°49' E 012°43'918.7
2019-Sep-13 13:30N 55°58' E 012°42'917.6
2019-Sep-13 13:00N 56°06' E 012°34'6915.0
2019-Sep-13 08:26N 57°07' E 011°37'511.3
2019-Sep-13 08:00N 57°11' E 011°34'811.5
2019-Sep-13 07:18N 57°19' E 011°32'412.9
2019-Sep-13 06:59N 57°24' E 011°31'612.3
2019-Sep-13 06:30N 57°29' E 011°31'510.9
2019-Sep-13 06:00N 57°25' E 011°36'917.5
2019-Sep-13 05:30N 57°16' E 011°38'918.3
2019-Sep-13 05:00N 57°07' E 011°41'11815.9
2019-Sep-12 21:35N 55°11' E 011°05'719.1
2019-Sep-12 21:12N 55°04' E 011°02'419.5
2019-Sep-12 21:01N 54°60' E 011°02'918.4
2019-Sep-12 20:31N 54°52' E 010°53'917.4
2019-Sep-12 20:01N 54°43' E 010°53'815.8
2019-Sep-12 19:30N 54°39' E 011°04'1020.4
2019-Sep-12 19:01N 54°34' E 011°19'1020.7
2019-Sep-12 18:30N 54°29' E 011°36'1020.7
2019-Sep-12 18:00N 54°27' E 011°53'1120.0
2019-Sep-12 17:29N 54°27' E 012°11'10020.2
2019-Sep-12 12:33N 55°25' E 014°32'121.4
2019-Sep-12 12:29N 55°26' E 014°34'1021.4
2019-Sep-12 12:00N 55°31' E 014°50'1121.5
2019-Sep-12 11:30N 55°36' E 015°07'1121.5
2019-Sep-12 11:01N 55°41' E 015°24'1121.4
2019-Sep-12 10:31N 55°46' E 015°40'1121.8
2019-Sep-12 10:01N 55°52' E 015°57'1121.3
2019-Sep-12 09:31N 55°57' E 016°13'1121.2
2019-Sep-12 09:00N 56°03' E 016°29'1121.6
2019-Sep-12 08:31N 56°09' E 016°45'23819.3
2019-Sep-11 20:11N 59°14' E 021°23'520.4
2019-Sep-11 19:56N 59°17' E 021°33'8420.6
2019-Sep-11 15:52N 59°45' E 024°08'820.9
2019-Sep-11 15:30N 59°47' E 024°22'1119.9
2019-Sep-11 14:56N 59°53' E 024°41'920.1
2019-Sep-11 14:31N 59°59' E 024°54'3 7.0
2019-Sep-11 14:01N 60°03' E 024°54'611.9
2019-Sep-11 13:30N 60°09' E 024°54'1 1.2
2019-Sep-11 13:00N 60°09' E 024°55'0 0.0
2019-Sep-11 12:30N 60°09' E 024°55'0 0.0
2019-Sep-11 12:00N 60°09' E 024°55'0 0.0
2019-Sep-11 11:30N 60°09' E 024°55'0 0.0
2019-Sep-11 11:00N 60°09' E 024°55'0 0.0
2019-Sep-11 10:30N 60°09' E 024°55'0 0.0
2019-Sep-11 10:00N 60°09' E 024°55'0 0.0
2019-Sep-11 09:30N 60°09' E 024°55'0 0.0
2019-Sep-11 09:00N 60°09' E 024°55'0 0.0
2019-Sep-11 08:29N 60°09' E 024°55'0 0.0
2019-Sep-11 07:59N 60°09' E 024°55'0 0.0
2019-Sep-11 07:28N 60°09' E 024°55'0 0.0
2019-Sep-11 07:00N 60°09' E 024°55'0 0.0
2019-Sep-11 06:30N 60°09' E 024°55'0 0.0
2019-Sep-11 05:59N 60°09' E 024°55'0 0.0
2019-Sep-11 05:30N 60°09' E 024°55'0 0.0
2019-Sep-11 04:59N 60°09' E 024°55'0 0.0
2019-Sep-11 04:30N 60°09' E 024°55'0 0.0
2019-Sep-11 04:00N 60°09' E 024°55'0 0.1
2019-Sep-11 03:31N 60°09' E 024°55'3 5.5
2019-Sep-11 03:00N 60°06' E 024°54'612.9
2019-Sep-11 02:30N 59°60' E 024°57'612.0
2019-Sep-11 02:01N 59°54' E 025°02'815.2
2019-Sep-11 01:30N 59°55' E 025°17'715.0
2019-Sep-11 01:01N 59°55' E 025°32'815.0
2019-Sep-11 00:30N 59°55' E 025°47'815.2
2019-Sep-11 00:01N 59°57' E 026°02'816.6
2019-Sep-10 23:31N 59°60' E 026°18'1020.2
2019-Sep-10 23:01N 60°01' E 026°37'1020.7
2019-Sep-10 22:30N 59°60' E 026°58'1019.8
2019-Sep-10 22:01N 60°03' E 027°16'1020.2
2019-Sep-10 21:31N 60°08' E 027°34'918.8
2019-Sep-10 21:01N 60°11' E 027°52'  

Dump ship's entire track history